createdAt,value
2018-08-06T00:01:38.799Z,101404.48
2018-08-06T00:09:59.814Z,101402.66
2018-08-06T00:18:20.864Z,101389.63
2018-08-06T00:26:41.937Z,101385.48
2018-08-06T00:35:02.935Z,101387.19
2018-08-06T00:43:23.974Z,101381.88
2018-08-06T00:51:45.003Z,101370.02
2018-08-06T01:00:06.043Z,101366.77
2018-08-06T01:08:27.122Z,101356.77
2018-08-06T01:16:48.307Z,101350.06
2018-08-06T01:25:09.322Z,101341.91
2018-08-06T01:33:30.437Z,101333.05
2018-08-06T01:41:51.577Z,101324.56
2018-08-06T01:50:12.594Z,101313.65
2018-08-06T01:58:33.674Z,101309.66
2018-08-06T02:06:54.718Z,101311.78
2018-08-06T02:15:15.750Z,101305.01
2018-08-06T02:23:36.774Z,101306.14
2018-08-06T02:31:58.867Z,101292.58
2018-08-06T02:40:19.918Z,101295.33
2018-08-06T02:48:40.933Z,101282.09
2018-08-06T02:57:02.279Z,101277.70
2018-08-06T03:05:23.299Z,101279.23
2018-08-06T03:13:44.292Z,101277.74
2018-08-06T03:22:05.292Z,101266.67
2018-08-06T03:30:26.292Z,101256.65
2018-08-06T03:38:47.423Z,101258.98
2018-08-06T03:47:08.473Z,101256.36
2018-08-06T03:55:29.489Z,101252.67
2018-08-06T04:03:50.522Z,101251.17
2018-08-06T04:12:11.542Z,101249.12
2018-08-06T04:20:32.650Z,101254.25
2018-08-06T04:28:53.695Z,101253.08
2018-08-06T04:37:14.711Z,101244.11
2018-08-06T04:45:35.731Z,101238.61
2018-08-06T04:53:56.778Z,101225.20
2018-08-06T05:02:17.853Z,101222.47
2018-08-06T05:10:38.895Z,101213.73
2018-08-06T05:18:59.937Z,101218.02
2018-08-06T05:27:21.003Z,101224.52
2018-08-06T05:35:42.160Z,101213.73
2018-08-06T05:44:03.190Z,101209.61
2018-08-06T05:52:25.289Z,101220.36
2018-08-06T06:00:46.346Z,101220.52
2018-08-06T06:09:08.484Z,101214.22
2018-08-06T06:17:29.521Z,101211.72
2018-08-06T06:25:51.524Z,101209.92
2018-08-06T06:34:12.661Z,101209.34
2018-08-06T06:42:33.795Z,101211.26
2018-08-06T06:50:54.805Z,101215.47
2018-08-06T06:59:15.884Z,101212.46
2018-08-06T07:07:36.904Z,101203.45
2018-08-06T07:15:57.924Z,101209.86
2018-08-06T07:24:18.953Z,101201.16
2018-08-06T07:32:40.062Z,101194.73
2018-08-06T07:41:01.388Z,101187.23
2018-08-06T07:49:22.715Z,101164.52
2018-08-06T07:57:45.870Z,101158.69
2018-08-06T08:06:07.180Z,101154.34
2018-08-06T08:14:28.193Z,101136.68
2018-08-06T08:22:49.322Z,101131.49
2018-08-06T08:31:10.430Z,101122.25
2018-08-06T08:39:31.509Z,101115.11
2018-08-06T08:47:52.516Z,101108.03
2018-08-06T08:56:13.750Z,101088.16
2018-08-06T09:04:34.808Z,101083.33
2018-08-06T09:12:56.108Z,101068.70
2018-08-06T09:21:17.737Z,101072.91
2018-08-06T09:29:40.195Z,101070.16
2018-08-06T09:38:01.526Z,101058.30
2018-08-06T09:46:22.631Z,101048.95
2018-08-06T09:54:43.812Z,101030.75
2018-08-06T10:03:05.011Z,101015.86
2018-08-06T10:11:26.110Z,100996.37
2018-08-06T10:19:47.271Z,100980.75
2018-08-06T10:28:08.302Z,100967.23
2018-08-06T10:36:30.212Z,100958.20
2018-08-06T10:44:51.504Z,100949.70
2018-08-06T10:53:13.862Z,100934.88
2018-08-06T11:01:39.666Z,100918.42
2018-08-06T11:10:02.253Z,100911.77
2018-08-06T11:18:23.329Z,100891.22
2018-08-06T11:26:44.347Z,100875.54
2018-08-06T11:35:05.437Z,100865.89
2018-08-06T11:43:26.512Z,100866.58
2018-08-06T11:51:48.627Z,100843.09
2018-08-06T12:00:10.061Z,100853.87
2018-08-06T12:08:31.421Z,100832.23
2018-08-06T12:16:52.450Z,100814.56
2018-08-06T12:25:14.776Z,100822.06
2018-08-06T12:33:35.974Z,100825.10
2018-08-06T12:41:57.121Z,100831.48
2018-08-06T12:50:19.594Z,100820.98
2018-08-06T12:58:40.815Z,100823.47
2018-08-06T13:07:02.202Z,100806.34
2018-08-06T14:03:20.799Z,100746.42
2018-08-06T14:11:41.902Z,100725.77
2018-08-06T14:20:03.493Z,100713.11
2018-08-06T14:28:24.832Z,100709.89
2018-08-06T14:36:45.905Z,100707.44
2018-08-06T14:45:07.085Z,100695.18
2018-08-06T14:53:28.152Z,100685.16
2018-08-06T15:01:49.178Z,100675.33
2018-08-06T15:10:11.279Z,100672.89
2018-08-06T15:18:32.412Z,100664.05
2018-08-06T15:26:53.431Z,100658.28
2018-08-06T15:35:14.607Z,100650.63
2018-08-06T15:43:35.935Z,100647.41
2018-08-06T16:58:29.211Z,100558.80
2018-08-06T17:06:50.329Z,100556.66
2018-08-06T17:23:39.189Z,100543.84
2018-08-06T17:32:00.341Z,100551.16
2018-08-06T17:40:22.543Z,100542.88
2018-08-06T17:48:47.176Z,100539.53
2018-08-06T17:57:09.658Z,100545.73
2018-08-06T18:05:31.420Z,100538.52
2018-08-06T18:13:52.560Z,100535.41
2018-08-06T18:22:13.694Z,100540.75
2018-08-06T18:30:35.000Z,100536.89
2018-08-06T18:38:58.047Z,100543.11
2018-08-06T18:47:19.383Z,100546.18
2018-08-06T19:04:06.726Z,100556.98
2018-08-06T19:12:27.736Z,100543.93
2018-08-06T19:20:48.745Z,100552.17
2018-08-06T19:29:09.749Z,100559.72
2018-08-06T19:37:30.738Z,100560.44
2018-08-06T19:45:51.733Z,100564.41
2018-08-06T19:54:12.727Z,100572.69
2018-08-06T20:02:33.842Z,100571.27
2018-08-06T20:10:54.886Z,100577.59
2018-08-06T20:19:15.956Z,100575.17
2018-08-06T20:27:36.977Z,100577.02
2018-08-06T20:35:57.974Z,100578.88
2018-08-06T20:44:19.086Z,100590.23
2018-08-06T20:52:40.078Z,100588.08
2018-08-06T21:01:01.173Z,100591.12
2018-08-06T21:09:22.170Z,100598.46
2018-08-06T21:17:43.579Z,100589.28
2018-08-06T21:26:04.849Z,100587.89
2018-08-06T21:34:25.857Z,100588.22
2018-08-06T21:42:47.927Z,100583.80
2018-08-06T21:51:08.914Z,100586.28
2018-08-06T21:59:29.935Z,100579.27
2018-08-06T22:07:50.930Z,100572.09
2018-08-06T22:16:11.944Z,100578.81
2018-08-06T22:24:32.942Z,100575.73
2018-08-06T22:32:53.975Z,100566.81
2018-08-06T22:41:15.044Z,100567.95
2018-08-06T22:49:36.090Z,100568.29
2018-08-06T22:57:57.133Z,100566.32
2018-08-06T23:06:18.164Z,100557.86
2018-08-06T23:14:39.168Z,100550.05
2018-08-06T23:23:00.255Z,100547.23
2018-08-06T23:31:21.317Z,100542.14
2018-08-06T23:39:42.357Z,100540.66
2018-08-06T23:48:03.394Z,100526.23
2018-08-06T23:56:24.377Z,100520.12
